Watton, MI

9:57 PM EDT on July 28, 2014 (GMT -0400)
Kings Land O'Lakes (KLNL) Elev 1706 ft | 46.15 °N, 89.21 °W | Change Station

Current weather conditions updated 22 minutes ago

Overcast
Overcast
59 °F
Feels Like 59 °F
N
0
Wind Variable Wind from North

Tomorrow is forecast to be nearly the same temperature as today. Partly cloudy with a stray thunderstorm.

Today
High -- | Low -- °F
--% Chance of Precip.
Yesterday
High -- | Low -- °F
Precip. -- in
6:30 AM 9:30 PM
Waxing Crescent, 4% visible
Pressure 30.08 in
Visibility 10.0 miles
Clouds Mostly Cloudy 4600 ft
Mostly Cloudy 5000 ft
Overcast 7000 ft
Dew Point 56 °F
Humidity 90%
Rainfall 0.00 in
Snow Depth Not available.
UV 0 out of 12
Pollen 7.30 out of 12
Air Quality Not available.
Flu Activity Not available.
METAR KLNL 290135Z AUTO 00000KT 10SM BKN046 BKN050 OVC070 15/14 A3008 RMK AO2 T01520135

More Conditions Fewer Conditions

Pressure 30.08 in
Visibility 10.0 miles
Clouds Mostly Cloudy 4600 ft
Mostly Cloudy 5000 ft
Overcast 7000 ft
Dew Point 56 °F
Humidity 90%
Rainfall 0.00 in
Snow Depth Not available.
UV 0 out of 12
Pollen 7.30 out of 12
Air Quality Not available.
Flu Activity Not available.
METAR KLNL 290135Z AUTO 00000KT 10SM BKN046 BKN050 OVC070 15/14 A3008 RMK AO2 T01520135

More Conditions Fewer Conditions

10-Day Weather Forecast

Almanac

Astronomy

Jul. 28, 2014 Rise Set
Actual Time 6:30 AM EDT 9:30 PM EDT
Civil Twilight 5:55 AM EDT 10:06 PM EDT
Nautical Twilight 5:09 AM EDT 10:51 PM EDT
Astronomical Twilight 4:13 AM EDT 11:46 PM EDT
Moon 8:21 AM EDT (7/28) 10:00 PM EDT (7/28)
Length of Visible Light 16h 10m
Length of Day
14h 59m
Tomorrow will be 2m 26s shorter.
Waxing Crescent, 4% of the Moon is Illuminated
Today
Waxing Crescent
Aug 3
First Quarter
Aug 10
Full
Aug 17
Last Quarter
Aug 25
New

Today's Extremes

State Highs State Lows

Community

WunderPhotos

Upload Photos

1,738,583 photos uploaded!

Nearby

Snow Depth

Station Depth Elevation
No new snow has been reported.

Earthquake Activity

City Distance Mag. Time & Date
No recent earthquake activity has been reported nearby.
Minimum magnitude displayed is 2.5.

Coastal Water Temperatures

Place Temperature
No Stations Reporting

Nearby Weather Stations

Station Location Temp. Dew Point Humidity Wind Precip. Elev Updated Type
RAWS KENTON MI, Nisula, MI 61 °F 54 °F 78% NW  at  2 mph 0.00 in / hr 1262 ft 8:56 PM EDT MADIS

Show More Stations Show Fewer Stations